Terminal Aerodrome Forecast
Issued by NWS

Home | Current Version | Previous Version | Graphics & Text | Print | Product List | Glossary On
Versions: 1 2 3 4 5 6 7 8 9 10 11 12 13 14 15 16 17 18 19 20
000
FTUS43 KGRB 100520
TAFATW
TAF
KATW 100520Z 1006/1106 23004KT P6SM -SHSN BKN050 BKN080
     FM101200 23006KT P6SM BKN045
     FM101400 30007KT P6SM BKN050
     FM110100 31005KT P6SM SCT070=

USA.gov is the U.S. government's official web portal to all federal, state and local government web resources and services.